sensor_id;sensor_type;location;lat;lon;timestamp;temperature;humidity
24374;DHT22;12498;50.880;12.096;2022-07-29T00:00:20;18.50;82.80
24374;DHT22;12498;50.880;12.096;2022-07-29T00:02:46;18.60;83.40
24374;DHT22;12498;50.880;12.096;2022-07-29T00:05:12;18.50;83.30
24374;DHT22;12498;50.880;12.096;2022-07-29T00:07:39;18.50;83.60
24374;DHT22;12498;50.880;12.096;2022-07-29T00:10:05;18.50;83.90
24374;DHT22;12498;50.880;12.096;2022-07-29T00:12:31;18.40;84.00
24374;DHT22;12498;50.880;12.096;2022-07-29T00:14:57;18.40;84.20
24374;DHT22;12498;50.880;12.096;2022-07-29T00:17:23;18.40;84.50
24374;DHT22;12498;50.880;12.096;2022-07-29T00:19:49;18.40;85.00
24374;DHT22;12498;50.880;12.096;2022-07-29T00:22:15;18.40;85.60
24374;DHT22;12498;50.880;12.096;2022-07-29T00:24:41;18.40;86.10
24374;DHT22;12498;50.880;12.096;2022-07-29T00:27:06;18.40;86.10
24374;DHT22;12498;50.880;12.096;2022-07-29T00:29:32;18.40;86.30
24374;DHT22;12498;50.880;12.096;2022-07-29T00:31:57;18.30;87.60
24374;DHT22;12498;50.880;12.096;2022-07-29T00:34:23;18.30;87.40
24374;DHT22;12498;50.880;12.096;2022-07-29T00:37:07;18.30;88.40
24374;DHT22;12498;50.880;12.096;2022-07-29T00:39:33;18.30;88.50
24374;DHT22;12498;50.880;12.096;2022-07-29T00:41:58;18.20;88.70
24374;DHT22;12498;50.880;12.096;2022-07-29T00:44:27;18.30;88.50
24374;DHT22;12498;50.880;12.096;2022-07-29T00:46:52;18.20;89.40
24374;DHT22;12498;50.880;12.096;2022-07-29T00:49:18;18.20;90.00
24374;DHT22;12498;50.880;12.096;2022-07-29T00:51:44;18.20;90.60
24374;DHT22;12498;50.880;12.096;2022-07-29T00:54:09;18.20;90.40
24374;DHT22;12498;50.880;12.096;2022-07-29T00:56:35;18.20;90.40
24374;DHT22;12498;50.880;12.096;2022-07-29T00:59:01;18.20;90.20
24374;DHT22;12498;50.880;12.096;2022-07-29T01:01:27;18.20;90.60
24374;DHT22;12498;50.880;12.096;2022-07-29T01:03:53;18.10;90.70
24374;DHT22;12498;50.880;12.096;2022-07-29T01:06:19;18.10;91.00
24374;DHT22;12498;50.880;12.096;2022-07-29T01:08:47;18.10;91.40
24374;DHT22;12498;50.880;12.096;2022-07-29T01:11:14;18.10;91.70
24374;DHT22;12498;50.880;12.096;2022-07-29T01:13:42;18.10;92.20
24374;DHT22;12498;50.880;12.096;2022-07-29T01:16:21;18.10;92.30
24374;DHT22;12498;50.880;12.096;2022-07-29T01:18:49;18.10;92.40
24374;DHT22;12498;50.880;12.096;2022-07-29T01:21:57;18.10;92.90
24374;DHT22;12498;50.880;12.096;2022-07-29T01:30:32;18.00;93.50
24374;DHT22;12498;50.880;12.096;2022-07-29T01:33:03;18.00;93.90
24374;DHT22;12498;50.880;12.096;2022-07-29T01:35:40;18.00;94.60
24374;DHT22;12498;50.880;12.096;2022-07-29T01:38:17;18.00;94.50
24374;DHT22;12498;50.880;12.096;2022-07-29T01:40:52;18.00;94.20
24374;DHT22;12498;50.880;12.096;2022-07-29T01:43:23;18.00;94.40
24374;DHT22;12498;50.880;12.096;2022-07-29T01:46:04;18.00;94.70
24374;DHT22;12498;50.880;12.096;2022-07-29T01:48:40;17.90;95.80
24374;DHT22;12498;50.880;12.096;2022-07-29T01:51:25;17.90;95.30
24374;DHT22;12498;50.880;12.096;2022-07-29T01:54:06;17.90;95.50
24374;DHT22;12498;50.880;12.096;2022-07-29T01:56:35;17.80;95.50
24374;DHT22;12498;50.880;12.096;2022-07-29T01:59:03;17.80;95.60
24374;DHT22;12498;50.880;12.096;2022-07-29T02:01:31;17.80;95.70
24374;DHT22;12498;50.880;12.096;2022-07-29T02:03:59;17.80;95.70
24374;DHT22;12498;50.880;12.096;2022-07-29T02:06:28;17.80;95.90
24374;DHT22;12498;50.880;12.096;2022-07-29T02:08:55;17.80;96.20
24374;DHT22;12498;50.880;12.096;2022-07-29T02:11:24;17.80;96.50
24374;DHT22;12498;50.880;12.096;2022-07-29T02:13:51;17.70;96.80
24374;DHT22;12498;50.880;12.096;2022-07-29T02:16:19;17.70;97.20
24374;DHT22;12498;50.880;12.096;2022-07-29T02:18:49;17.70;97.40
24374;DHT22;12498;50.880;12.096;2022-07-29T02:21:20;17.70;97.60
24374;DHT22;12498;50.880;12.096;2022-07-29T02:23:48;17.70;98.00
24374;DHT22;12498;50.880;12.096;2022-07-29T02:26:15;17.70;98.20
24374;DHT22;12498;50.880;12.096;2022-07-29T02:28:42;17.70;98.00
24374;DHT22;12498;50.880;12.096;2022-07-29T02:31:09;17.60;98.70
24374;DHT22;12498;50.880;12.096;2022-07-29T02:33:36;17.60;98.70
24374;DHT22;12498;50.880;12.096;2022-07-29T02:36:02;17.70;99.50
24374;DHT22;12498;50.880;12.096;2022-07-29T02:38:29;17.60;99.80
24374;DHT22;12498;50.880;12.096;2022-07-29T02:41:18;17.60;99.90
24374;DHT22;12498;50.880;12.096;2022-07-29T02:43:47;17.60;99.90
24374;DHT22;12498;50.880;12.096;2022-07-29T02:46:20;17.60;99.90
24374;DHT22;12498;50.880;12.096;2022-07-29T02:49:05;17.60;99.90
24374;DHT22;12498;50.880;12.096;2022-07-29T02:51:54;17.50;99.90
24374;DHT22;12498;50.880;12.096;2022-07-29T02:56:55;17.40;99.90
24374;DHT22;12498;50.880;12.096;2022-07-29T02:59:25;17.40;99.90
24374;DHT22;12498;50.880;12.096;2022-07-29T03:01:52;17.30;99.90
24374;DHT22;12498;50.880;12.096;2022-07-29T03:04:20;17.30;99.90
24374;DHT22;12498;50.880;12.096;2022-07-29T03:06:48;17.30;99.90
24374;DHT22;12498;50.880;12.096;2022-07-29T03:09:15;17.30;99.90
24374;DHT22;12498;50.880;12.096;2022-07-29T03:11:42;17.30;99.90
24374;DHT22;12498;50.880;12.096;2022-07-29T03:14:08;17.30;99.90
24374;DHT22;12498;50.880;12.096;2022-07-29T03:16:35;17.20;99.90
24374;DHT22;12498;50.880;12.096;2022-07-29T03:19:02;17.20;99.90
24374;DHT22;12498;50.880;12.096;2022-07-29T03:21:29;17.20;99.90
24374;DHT22;12498;50.880;12.096;2022-07-29T03:23:55;17.20;99.90
24374;DHT22;12498;50.880;12.096;2022-07-29T03:26:20;17.10;99.90
24374;DHT22;12498;50.880;12.096;2022-07-29T03:28:46;17.10;99.90
24374;DHT22;12498;50.880;12.096;2022-07-29T03:31:12;17.20;99.90
24374;DHT22;12498;50.880;12.096;2022-07-29T03:33:37;17.10;99.90
24374;DHT22;12498;50.880;12.096;2022-07-29T03:36:03;17.10;99.90
24374;DHT22;12498;50.880;12.096;2022-07-29T03:38:30;17.20;99.90
24374;DHT22;12498;50.880;12.096;2022-07-29T03:41:05;17.20;99.90
24374;DHT22;12498;50.880;12.096;2022-07-29T03:43:35;17.20;99.90
24374;DHT22;12498;50.880;12.096;2022-07-29T03:46:03;17.10;99.90
24374;DHT22;12498;50.880;12.096;2022-07-29T03:48:31;17.10;99.90
24374;DHT22;12498;50.880;12.096;2022-07-29T03:50:58;17.10;99.90
24374;DHT22;12498;50.880;12.096;2022-07-29T03:53:24;17.10;99.90
24374;DHT22;12498;50.880;12.096;2022-07-29T03:55:53;17.10;99.90
24374;DHT22;12498;50.880;12.096;2022-07-29T03:58:20;17.10;99.90
24374;DHT22;12498;50.880;12.096;2022-07-29T04:00:46;17.00;99.90
24374;DHT22;12498;50.880;12.096;2022-07-29T04:03:13;17.10;99.90
24374;DHT22;12498;50.880;12.096;2022-07-29T04:05:39;17.00;99.90
24374;DHT22;12498;50.880;12.096;2022-07-29T04:08:05;17.10;99.90
24374;DHT22;12498;50.880;12.096;2022-07-29T04:10:31;17.10;99.90
24374;DHT22;12498;50.880;12.096;2022-07-29T04:12:57;17.10;99.90
24374;DHT22;12498;50.880;12.096;2022-07-29T04:15:23;17.10;99.90
24374;DHT22;12498;50.880;12.096;2022-07-29T04:17:48;17.10;99.90
24374;DHT22;12498;50.880;12.096;2022-07-29T04:20:14;17.10;99.90
24374;DHT22;12498;50.880;12.096;2022-07-29T04:22:40;17.10;99.90
24374;DHT22;12498;50.880;12.096;2022-07-29T04:25:06;17.10;99.90
24374;DHT22;12498;50.880;12.096;2022-07-29T04:27:32;17.20;99.90
24374;DHT22;12498;50.880;12.096;2022-07-29T04:29:58;17.10;99.90
24374;DHT22;12498;50.880;12.096;2022-07-29T04:32:24;17.20;99.90
24374;DHT22;12498;50.880;12.096;2022-07-29T04:34:51;17.20;99.90
24374;DHT22;12498;50.880;12.096;2022-07-29T04:37:16;17.30;99.90
24374;DHT22;12498;50.880;12.096;2022-07-29T04:39:42;17.30;99.90
24374;DHT22;12498;50.880;12.096;2022-07-29T04:42:08;17.30;99.90
24374;DHT22;12498;50.880;12.096;2022-07-29T04:44:33;17.30;99.90
24374;DHT22;12498;50.880;12.096;2022-07-29T04:46:59;17.30;99.90
24374;DHT22;12498;50.880;12.096;2022-07-29T04:49:25;17.40;99.90
24374;DHT22;12498;50.880;12.096;2022-07-29T04:51:51;17.40;99.90
24374;DHT22;12498;50.880;12.096;2022-07-29T04:54:16;17.50;99.90
24374;DHT22;12498;50.880;12.096;2022-07-29T04:56:42;17.50;99.90
24374;DHT22;12498;50.880;12.096;2022-07-29T04:59:11;17.50;99.90
24374;DHT22;12498;50.880;12.096;2022-07-29T05:01:36;17.50;99.90
24374;DHT22;12498;50.880;12.096;2022-07-29T05:04:02;17.60;99.90
24374;DHT22;12498;50.880;12.096;2022-07-29T05:06:27;17.50;99.90
24374;DHT22;12498;50.880;12.096;2022-07-29T05:08:53;17.50;99.90
24374;DHT22;12498;50.880;12.096;2022-07-29T05:11:19;17.50;99.90
24374;DHT22;12498;50.880;12.096;2022-07-29T05:13:44;17.50;99.90
24374;DHT22;12498;50.880;12.096;2022-07-29T05:16:10;17.50;99.90
24374;DHT22;12498;50.880;12.096;2022-07-29T05:18:36;17.60;99.90
24374;DHT22;12498;50.880;12.096;2022-07-29T05:21:01;17.60;99.90
24374;DHT22;12498;50.880;12.096;2022-07-29T05:23:30;17.70;99.90
24374;DHT22;12498;50.880;12.096;2022-07-29T05:25:56;17.60;99.90
24374;DHT22;12498;50.880;12.096;2022-07-29T05:28:22;17.60;99.90
24374;DHT22;12498;50.880;12.096;2022-07-29T05:30:47;17.60;99.90
24374;DHT22;12498;50.880;12.096;2022-07-29T05:33:13;17.60;99.90
24374;DHT22;12498;50.880;12.096;2022-07-29T05:35:39;17.70;99.90
24374;DHT22;12498;50.880;12.096;2022-07-29T05:38:04;17.70;99.90
24374;DHT22;12498;50.880;12.096;2022-07-29T05:40:30;17.70;99.90
24374;DHT22;12498;50.880;12.096;2022-07-29T05:42:56;17.80;99.90
24374;DHT22;12498;50.880;12.096;2022-07-29T05:45:22;17.90;99.90
24374;DHT22;12498;50.880;12.096;2022-07-29T05:47:52;17.90;99.90
24374;DHT22;12498;50.880;12.096;2022-07-29T05:50:17;18.00;99.90
24374;DHT22;12498;50.880;12.096;2022-07-29T05:52:43;18.00;99.90
24374;DHT22;12498;50.880;12.096;2022-07-29T05:55:09;18.10;99.90
24374;DHT22;12498;50.880;12.096;2022-07-29T05:57:35;18.20;99.90
24374;DHT22;12498;50.880;12.096;2022-07-29T06:00:00;18.30;99.90
24374;DHT22;12498;50.880;12.096;2022-07-29T06:02:26;18.30;99.90
24374;DHT22;12498;50.880;12.096;2022-07-29T06:04:52;18.40;99.90
24374;DHT22;12498;50.880;12.096;2022-07-29T06:07:18;18.40;99.90
24374;DHT22;12498;50.880;12.096;2022-07-29T06:09:43;18.40;99.90
24374;DHT22;12498;50.880;12.096;2022-07-29T06:12:09;18.40;99.90
24374;DHT22;12498;50.880;12.096;2022-07-29T06:14:35;18.50;99.90
24374;DHT22;12498;50.880;12.096;2022-07-29T06:17:01;18.70;99.90
24374;DHT22;12498;50.880;12.096;2022-07-29T06:19:27;19.10;99.90
24374;DHT22;12498;50.880;12.096;2022-07-29T06:21:53;19.40;99.90
24374;DHT22;12498;50.880;12.096;2022-07-29T06:24:18;19.70;99.90
24374;DHT22;12498;50.880;12.096;2022-07-29T06:26:44;19.90;99.90
24374;DHT22;12498;50.880;12.096;2022-07-29T06:29:10;20.00;99.90
24374;DHT22;12498;50.880;12.096;2022-07-29T06:31:36;20.20;99.90
24374;DHT22;12498;50.880;12.096;2022-07-29T06:34:03;20.30;99.90
24374;DHT22;12498;50.880;12.096;2022-07-29T06:36:29;20.30;99.90
24374;DHT22;12498;50.880;12.096;2022-07-29T06:38:54;20.30;99.90
24374;DHT22;12498;50.880;12.096;2022-07-29T06:41:20;20.20;99.90
24374;DHT22;12498;50.880;12.096;2022-07-29T06:43:46;20.10;99.90
24374;DHT22;12498;50.880;12.096;2022-07-29T06:46:14;20.00;99.90
24374;DHT22;12498;50.880;12.096;2022-07-29T06:48:41;19.80;99.90
24374;DHT22;12498;50.880;12.096;2022-07-29T06:51:08;19.70;99.90
24374;DHT22;12498;50.880;12.096;2022-07-29T06:53:34;19.60;99.90
24374;DHT22;12498;50.880;12.096;2022-07-29T06:56:01;19.70;99.90
24374;DHT22;12498;50.880;12.096;2022-07-29T06:58:28;19.80;99.90
24374;DHT22;12498;50.880;12.096;2022-07-29T07:00:54;19.80;99.90
24374;DHT22;12498;50.880;12.096;2022-07-29T07:03:21;19.80;99.90
24374;DHT22;12498;50.880;12.096;2022-07-29T07:05:46;19.70;99.90
24374;DHT22;12498;50.880;12.096;2022-07-29T07:08:12;19.90;99.90
24374;DHT22;12498;50.880;12.096;2022-07-29T07:10:38;20.00;99.90
24374;DHT22;12498;50.880;12.096;2022-07-29T07:13:05;20.10;99.90
24374;DHT22;12498;50.880;12.096;2022-07-29T07:15:31;20.00;99.90
24374;DHT22;12498;50.880;12.096;2022-07-29T07:17:57;20.00;99.90
24374;DHT22;12498;50.880;12.096;2022-07-29T07:20:24;20.00;99.90
24374;DHT22;12498;50.880;12.096;2022-07-29T07:22:50;20.10;99.90
24374;DHT22;12498;50.880;12.096;2022-07-29T07:25:44;19.90;99.90
24374;DHT22;12498;50.880;12.096;2022-07-29T07:28:15;20.00;99.90
24374;DHT22;12498;50.880;12.096;2022-07-29T07:30:41;20.20;99.90
24374;DHT22;12498;50.880;12.096;2022-07-29T07:33:06;20.40;99.90
24374;DHT22;12498;50.880;12.096;2022-07-29T07:35:32;20.50;99.90
24374;DHT22;12498;50.880;12.096;2022-07-29T07:37:58;20.50;99.90
24374;DHT22;12498;50.880;12.096;2022-07-29T07:40:24;20.40;99.90
24374;DHT22;12498;50.880;12.096;2022-07-29T07:42:50;20.20;99.90
24374;DHT22;12498;50.880;12.096;2022-07-29T07:45:18;20.30;99.90
24374;DHT22;12498;50.880;12.096;2022-07-29T07:47:44;20.40;99.90
24374;DHT22;12498;50.880;12.096;2022-07-29T07:50:11;20.60;99.90
24374;DHT22;12498;50.880;12.096;2022-07-29T07:52:53;20.80;99.90
24374;DHT22;12498;50.880;12.096;2022-07-29T07:55:20;20.90;99.90
24374;DHT22;12498;50.880;12.096;2022-07-29T07:57:47;21.00;99.90
24374;DHT22;12498;50.880;12.096;2022-07-29T08:00:14;21.10;99.90
24374;DHT22;12498;50.880;12.096;2022-07-29T08:02:40;21.20;99.90
24374;DHT22;12498;50.880;12.096;2022-07-29T08:05:08;21.10;99.90
24374;DHT22;12498;50.880;12.096;2022-07-29T08:07:34;21.10;99.90
24374;DHT22;12498;50.880;12.096;2022-07-29T08:10:00;21.20;99.90
24374;DHT22;12498;50.880;12.096;2022-07-29T08:12:25;21.30;99.90
24374;DHT22;12498;50.880;12.096;2022-07-29T08:14:51;21.50;99.90
24374;DHT22;12498;50.880;12.096;2022-07-29T08:17:19;21.50;99.90
24374;DHT22;12498;50.880;12.096;2022-07-29T08:19:45;21.50;99.90
24374;DHT22;12498;50.880;12.096;2022-07-29T08:22:13;21.70;99.90
24374;DHT22;12498;50.880;12.096;2022-07-29T08:24:39;22.00;99.90
24374;DHT22;12498;50.880;12.096;2022-07-29T08:27:09;22.30;99.90
24374;DHT22;12498;50.880;12.096;2022-07-29T08:29:35;22.60;99.90
24374;DHT22;12498;50.880;12.096;2022-07-29T08:32:01;22.70;99.90
24374;DHT22;12498;50.880;12.096;2022-07-29T08:34:27;22.80;99.90
24374;DHT22;12498;50.880;12.096;2022-07-29T08:36:54;23.10;99.90
24374;DHT22;12498;50.880;12.096;2022-07-29T08:39:20;23.20;99.50
24374;DHT22;12498;50.880;12.096;2022-07-29T08:41:49;23.40;99.90
24374;DHT22;12498;50.880;12.096;2022-07-29T08:44:17;23.50;99.50
24374;DHT22;12498;50.880;12.096;2022-07-29T08:46:43;23.50;98.80
24374;DHT22;12498;50.880;12.096;2022-07-29T08:49:08;23.70;98.70
24374;DHT22;12498;50.880;12.096;2022-07-29T08:51:36;24.00;98.80
24374;DHT22;12498;50.880;12.096;2022-07-29T08:54:04;24.20;97.80
24374;DHT22;12498;50.880;12.096;2022-07-29T08:56:30;24.50;97.40
24374;DHT22;12498;50.880;12.096;2022-07-29T08:58:58;24.80;96.60
24374;DHT22;12498;50.880;12.096;2022-07-29T09:01:25;25.10;96.00
24374;DHT22;12498;50.880;12.096;2022-07-29T09:03:55;25.40;94.90
24374;DHT22;12498;50.880;12.096;2022-07-29T09:06:22;25.60;94.30
24374;DHT22;12498;50.880;12.096;2022-07-29T09:08:48;25.80;94.00
24374;DHT22;12498;50.880;12.096;2022-07-29T09:11:14;25.70;93.30
24374;DHT22;12498;50.880;12.096;2022-07-29T09:13:40;25.90;93.20
24374;DHT22;12498;50.880;12.096;2022-07-29T09:16:09;25.80;92.50
24374;DHT22;12498;50.880;12.096;2022-07-29T09:18:40;25.70;92.50
24374;DHT22;12498;50.880;12.096;2022-07-29T09:21:09;25.50;92.60
24374;DHT22;12498;50.880;12.096;2022-07-29T09:26:31;25.70;92.30
24374;DHT22;12498;50.880;12.096;2022-07-29T09:28:58;25.50;92.40
24374;DHT22;12498;50.880;12.096;2022-07-29T09:31:36;25.70;92.40
24374;DHT22;12498;50.880;12.096;2022-07-29T09:34:03;25.90;92.00
24374;DHT22;12498;50.880;12.096;2022-07-29T09:36:29;26.10;91.30
24374;DHT22;12498;50.880;12.096;2022-07-29T09:39:01;26.20;90.50
24374;DHT22;12498;50.880;12.096;2022-07-29T09:41:27;26.30;90.20
24374;DHT22;12498;50.880;12.096;2022-07-29T09:44:00;26.40;90.20
24374;DHT22;12498;50.880;12.096;2022-07-29T09:46:27;26.50;89.40
24374;DHT22;12498;50.880;12.096;2022-07-29T09:49:10;26.40;88.60
24374;DHT22;12498;50.880;12.096;2022-07-29T09:51:37;26.40;88.70
24374;DHT22;12498;50.880;12.096;2022-07-29T09:54:23;26.50;88.00
24374;DHT22;12498;50.880;12.096;2022-07-29T09:56:49;26.60;86.50
24374;DHT22;12498;50.880;12.096;2022-07-29T09:59:15;26.50;86.30
24374;DHT22;12498;50.880;12.096;2022-07-29T10:01:41;26.70;86.00
24374;DHT22;12498;50.880;12.096;2022-07-29T10:04:07;27.20;84.10
24374;DHT22;12498;50.880;12.096;2022-07-29T10:06:32;27.60;81.90
24374;DHT22;12498;50.880;12.096;2022-07-29T10:09:11;27.60;82.20
24374;DHT22;12498;50.880;12.096;2022-07-29T10:12:05;28.60;80.20
24374;DHT22;12498;50.880;12.096;2022-07-29T10:14:32;28.60;78.50
24374;DHT22;12498;50.880;12.096;2022-07-29T10:16:59;28.70;78.90
24374;DHT22;12498;50.880;12.096;2022-07-29T10:19:29;29.20;78.00
24374;DHT22;12498;50.880;12.096;2022-07-29T10:21:57;30.00;75.50
24374;DHT22;12498;50.880;12.096;2022-07-29T10:24:29;30.10;74.70
24374;DHT22;12498;50.880;12.096;2022-07-29T10:27:00;29.80;73.00
24374;DHT22;12498;50.880;12.096;2022-07-29T10:29:30;29.10;73.70
24374;DHT22;12498;50.880;12.096;2022-07-29T10:43:25;30.10;70.80
24374;DHT22;12498;50.880;12.096;2022-07-29T10:45:56;31.40;70.00
24374;DHT22;12498;50.880;12.096;2022-07-29T10:48:22;32.10;66.20
24374;DHT22;12498;50.880;12.096;2022-07-29T10:50:58;31.40;66.60
24374;DHT22;12498;50.880;12.096;2022-07-29T10:53:25;31.80;67.10
24374;DHT22;12498;50.880;12.096;2022-07-29T10:56:30;32.10;66.40
24374;DHT22;12498;50.880;12.096;2022-07-29T11:01:46;33.20;61.80
24374;DHT22;12498;50.880;12.096;2022-07-29T11:04:12;33.10;60.60
24374;DHT22;12498;50.880;12.096;2022-07-29T11:09:25;33.50;60.00
24374;DHT22;12498;50.880;12.096;2022-07-29T11:11:51;33.90;58.90
24374;DHT22;12498;50.880;12.096;2022-07-29T11:17:05;34.10;57.70
24374;DHT22;12498;50.880;12.096;2022-07-29T11:19:31;35.10;56.00
24374;DHT22;12498;50.880;12.096;2022-07-29T11:21:58;35.70;54.40
24374;DHT22;12498;50.880;12.096;2022-07-29T11:24:28;36.30;53.10
24374;DHT22;12498;50.880;12.096;2022-07-29T11:27:09;37.30;51.10
24374;DHT22;12498;50.880;12.096;2022-07-29T11:29:41;37.80;50.00
24374;DHT22;12498;50.880;12.096;2022-07-29T11:32:13;38.70;48.40
24374;DHT22;12498;50.880;12.096;2022-07-29T11:34:41;39.00;46.80
24374;DHT22;12498;50.880;12.096;2022-07-29T11:45:08;39.60;44.40
24374;DHT22;12498;50.880;12.096;2022-07-29T11:47:39;39.60;44.30
24374;DHT22;12498;50.880;12.096;2022-07-29T11:50:09;40.00;43.50
24374;DHT22;12498;50.880;12.096;2022-07-29T11:52:41;39.60;43.60
24374;DHT22;12498;50.880;12.096;2022-07-29T11:55:17;39.00;43.20
24374;DHT22;12498;50.880;12.096;2022-07-29T12:00:45;36.50;45.80
24374;DHT22;12498;50.880;12.096;2022-07-29T12:03:11;36.30;46.80
24374;DHT22;12498;50.880;12.096;2022-07-29T12:05:39;36.90;46.60
24374;DHT22;12498;50.880;12.096;2022-07-29T12:08:20;37.00;46.10
24374;DHT22;12498;50.880;12.096;2022-07-29T12:10:48;35.90;46.60
24374;DHT22;12498;50.880;12.096;2022-07-29T12:13:16;35.20;48.10
24374;DHT22;12498;50.880;12.096;2022-07-29T12:15:42;33.90;49.00
24374;DHT22;12498;50.880;12.096;2022-07-29T12:18:11;33.40;50.10
24374;DHT22;12498;50.880;12.096;2022-07-29T12:20:36;33.60;50.30
24374;DHT22;12498;50.880;12.096;2022-07-29T12:23:06;34.50;49.70
24374;DHT22;12498;50.880;12.096;2022-07-29T12:25:34;35.20;48.70
24374;DHT22;12498;50.880;12.096;2022-07-29T12:28:02;35.90;48.40
24374;DHT22;12498;50.880;12.096;2022-07-29T12:33:11;36.10;46.70
24374;DHT22;12498;50.880;12.096;2022-07-29T12:35:37;35.50;47.80
24374;DHT22;12498;50.880;12.096;2022-07-29T12:38:03;35.60;47.70
24374;DHT22;12498;50.880;12.096;2022-07-29T12:40:29;35.50;47.90
24374;DHT22;12498;50.880;12.096;2022-07-29T12:43:17;35.00;48.30
24374;DHT22;12498;50.880;12.096;2022-07-29T12:45:49;35.40;47.90
24374;DHT22;12498;50.880;12.096;2022-07-29T12:48:16;35.30;48.00
24374;DHT22;12498;50.880;12.096;2022-07-29T12:51:00;34.20;49.10
24374;DHT22;12498;50.880;12.096;2022-07-29T12:53:27;33.20;49.90
24374;DHT22;12498;50.880;12.096;2022-07-29T12:55:55;32.50;50.90
24374;DHT22;12498;50.880;12.096;2022-07-29T13:01:16;31.50;52.90
24374;DHT22;12498;50.880;12.096;2022-07-29T13:22:17;28.50;58.90
24374;DHT22;12498;50.880;12.096;2022-07-29T13:24:59;28.30;59.70
24374;DHT22;12498;50.880;12.096;2022-07-29T13:27:28;28.30;59.80
24374;DHT22;12498;50.880;12.096;2022-07-29T13:29:55;28.30;59.60
24374;DHT22;12498;50.880;12.096;2022-07-29T13:32:26;28.30;59.70
24374;DHT22;12498;50.880;12.096;2022-07-29T13:34:53;28.30;59.80
24374;DHT22;12498;50.880;12.096;2022-07-29T13:37:19;28.20;60.40
24374;DHT22;12498;50.880;12.096;2022-07-29T13:39:45;28.00;60.20
24374;DHT22;12498;50.880;12.096;2022-07-29T13:42:12;27.90;60.50
24374;DHT22;12498;50.880;12.096;2022-07-29T13:44:39;27.80;61.00
24374;DHT22;12498;50.880;12.096;2022-07-29T13:47:05;27.70;63.50
24374;DHT22;12498;50.880;12.096;2022-07-29T13:49:31;27.30;67.40
24374;DHT22;12498;50.880;12.096;2022-07-29T13:51:57;26.80;71.60
24374;DHT22;12498;50.880;12.096;2022-07-29T13:54:22;26.40;76.00
24374;DHT22;12498;50.880;12.096;2022-07-29T13:56:50;25.90;80.90
24374;DHT22;12498;50.880;12.096;2022-07-29T13:59:16;25.60;85.10
24374;DHT22;12498;50.880;12.096;2022-07-29T14:01:41;25.30;87.40
24374;DHT22;12498;50.880;12.096;2022-07-29T14:04:08;25.20;90.00
24374;DHT22;12498;50.880;12.096;2022-07-29T14:06:34;24.90;91.50
24374;DHT22;12498;50.880;12.096;2022-07-29T14:08:59;24.90;92.90
24374;DHT22;12498;50.880;12.096;2022-07-29T14:11:25;24.60;95.50
24374;DHT22;12498;50.880;12.096;2022-07-29T14:13:51;24.40;98.70
24374;DHT22;12498;50.880;12.096;2022-07-29T14:16:16;24.30;99.90
24374;DHT22;12498;50.880;12.096;2022-07-29T14:18:42;24.20;99.90
24374;DHT22;12498;50.880;12.096;2022-07-29T14:21:08;24.10;99.90
24374;DHT22;12498;50.880;12.096;2022-07-29T14:23:34;24.10;99.90
24374;DHT22;12498;50.880;12.096;2022-07-29T14:26:00;24.10;99.90
24374;DHT22;12498;50.880;12.096;2022-07-29T14:28:26;24.10;99.90
24374;DHT22;12498;50.880;12.096;2022-07-29T14:30:51;24.10;99.90
24374;DHT22;12498;50.880;12.096;2022-07-29T14:33:17;24.00;99.90
24374;DHT22;12498;50.880;12.096;2022-07-29T14:35:43;24.00;99.90
24374;DHT22;12498;50.880;12.096;2022-07-29T14:38:09;23.90;99.90
24374;DHT22;12498;50.880;12.096;2022-07-29T14:40:35;23.90;99.90
24374;DHT22;12498;50.880;12.096;2022-07-29T14:43:01;23.90;99.90
24374;DHT22;12498;50.880;12.096;2022-07-29T14:45:28;23.80;99.90
24374;DHT22;12498;50.880;12.096;2022-07-29T14:47:54;23.70;99.90
24374;DHT22;12498;50.880;12.096;2022-07-29T14:50:19;23.60;99.90
24374;DHT22;12498;50.880;12.096;2022-07-29T14:52:45;23.50;99.90
24374;DHT22;12498;50.880;12.096;2022-07-29T14:55:10;23.50;99.90
24374;DHT22;12498;50.880;12.096;2022-07-29T14:57:36;23.50;99.90
24374;DHT22;12498;50.880;12.096;2022-07-29T15:00:04;23.40;99.90
24374;DHT22;12498;50.880;12.096;2022-07-29T15:02:30;23.40;99.90
24374;DHT22;12498;50.880;12.096;2022-07-29T15:04:55;23.30;99.90
24374;DHT22;12498;50.880;12.096;2022-07-29T15:07:21;23.50;99.90
24374;DHT22;12498;50.880;12.096;2022-07-29T15:09:47;23.80;99.90
24374;DHT22;12498;50.880;12.096;2022-07-29T15:12:13;24.10;99.90
24374;DHT22;12498;50.880;12.096;2022-07-29T15:14:38;24.30;99.90
24374;DHT22;12498;50.880;12.096;2022-07-29T15:17:04;24.60;99.90
24374;DHT22;12498;50.880;12.096;2022-07-29T15:19:30;24.80;99.90
24374;DHT22;12498;50.880;12.096;2022-07-29T15:21:56;25.10;99.90
24374;DHT22;12498;50.880;12.096;2022-07-29T15:24:21;25.30;99.90
24374;DHT22;12498;50.880;12.096;2022-07-29T15:26:47;25.50;99.90
24374;DHT22;12498;50.880;12.096;2022-07-29T15:29:13;25.60;99.90
24374;DHT22;12498;50.880;12.096;2022-07-29T15:31:39;25.80;99.90
24374;DHT22;12498;50.880;12.096;2022-07-29T15:34:04;25.90;99.90
24374;DHT22;12498;50.880;12.096;2022-07-29T15:36:30;26.10;99.90
24374;DHT22;12498;50.880;12.096;2022-07-29T15:38:56;26.00;99.90
24374;DHT22;12498;50.880;12.096;2022-07-29T15:41:22;26.00;99.90
24374;DHT22;12498;50.880;12.096;2022-07-29T15:43:47;26.00;99.90
24374;DHT22;12498;50.880;12.096;2022-07-29T15:46:14;26.10;99.90
24374;DHT22;12498;50.880;12.096;2022-07-29T15:48:59;26.00;99.90
24374;DHT22;12498;50.880;12.096;2022-07-29T15:51:25;26.20;99.90
24374;DHT22;12498;50.880;12.096;2022-07-29T15:53:50;26.40;99.90
24374;DHT22;12498;50.880;12.096;2022-07-29T15:56:16;26.50;99.90
24374;DHT22;12498;50.880;12.096;2022-07-29T15:58:42;26.80;99.90
24374;DHT22;12498;50.880;12.096;2022-07-29T16:01:08;27.00;99.90
24374;DHT22;12498;50.880;12.096;2022-07-29T16:03:36;27.10;99.90
24374;DHT22;12498;50.880;12.096;2022-07-29T16:06:02;27.20;99.90
24374;DHT22;12498;50.880;12.096;2022-07-29T16:08:28;27.20;99.90
24374;DHT22;12498;50.880;12.096;2022-07-29T16:10:54;27.20;99.90
24374;DHT22;12498;50.880;12.096;2022-07-29T16:13:19;27.20;99.90
24374;DHT22;12498;50.880;12.096;2022-07-29T16:15:45;27.10;99.90
24374;DHT22;12498;50.880;12.096;2022-07-29T16:18:11;27.10;99.90
24374;DHT22;12498;50.880;12.096;2022-07-29T16:20:38;27.10;99.90
24374;DHT22;12498;50.880;12.096;2022-07-29T16:23:04;27.20;99.90
24374;DHT22;12498;50.880;12.096;2022-07-29T16:25:30;27.20;99.90